YSNW/NOA METAR and TAF weather

Enter ICAO airport designator
Station Type Date Time Source
YSNW METAR 2018/12/13 22:00 UTC NOAA

YSNW 132200Z 17006KT 9000 -SHRA SCT004 OVC011 20/20 Q1002 FM2300 05005KT 9999 -SHRA SCT005 BKN015 TEMPO 2300/0100 5000 SHRA BKN005


Station Type Date Time Source
YSNW Decoded METAR 2018/12/13 22:00 UTC NOAA

Nowra Ran Air Station, Australia (YSNW) 34-57S 150-32E 110M
Dec 13, 2018 - 05:00 PM EST / 2018.12.13 2200 UTC
Wind: from the S (170 degrees) at 7 MPH (6 KT):0
Visibility: greater than 7 mile(s):0
Sky conditions: overcast
Weather: light rain showers
Temperature: 68 F (20 C)
Dew Point: 68 F (20 C)
Relative Humidity: 100%
Pressure (altimeter): 29.59 in. Hg (1002 hPa)
ob: YSNW 132200Z 17006KT 9000 -SHRA SCT004 OVC011 20/20 Q1002 FM2300 05005KT 9999 -SHRA SCT005 BKN015 TEMPO 2300/0100 5000 SHRA BKN005
cycle: 22

Station Type Date Time Source
YSNW TAF UTC NOAA

Error!


Example: see airport list